createdAt,value
2024-04-16T00:01:44.401Z,7.66
2024-04-16T00:04:11.344Z,7.64
2024-04-16T00:06:37.955Z,7.63
2024-04-16T00:09:04.563Z,7.60
2024-04-16T00:11:31.112Z,7.58
2024-04-16T00:13:57.655Z,7.58
2024-04-16T00:16:24.875Z,7.56
2024-04-16T00:18:51.755Z,7.56
2024-04-16T00:21:18.375Z,7.58
2024-04-16T00:23:44.993Z,7.57
2024-04-16T00:26:11.555Z,7.55
2024-04-16T00:28:38.086Z,7.56
2024-04-16T00:31:04.785Z,7.56
2024-04-16T00:33:31.316Z,7.56
2024-04-16T00:35:57.849Z,7.54
2024-04-16T00:38:24.497Z,7.55
2024-04-16T00:40:51.029Z,7.54
2024-04-16T00:43:18.081Z,7.53
2024-04-16T00:45:56.462Z,7.55
2024-04-16T00:48:26.245Z,7.55
2024-04-16T00:50:55.154Z,7.55
2024-04-16T00:53:22.487Z,7.56
2024-04-16T00:55:50.956Z,7.58
2024-04-16T00:58:19.743Z,7.60
2024-04-16T01:00:46.931Z,7.61
2024-04-16T01:03:13.828Z,7.62
2024-04-16T01:05:42.231Z,7.63
2024-04-16T01:08:09.967Z,7.63
2024-04-16T01:10:40.693Z,7.64
2024-04-16T01:13:07.925Z,7.64
2024-04-16T01:15:34.936Z,7.65
2024-04-16T01:18:03.763Z,7.65
2024-04-16T01:20:31.232Z,7.65
2024-04-16T01:22:57.904Z,7.66
2024-04-16T01:25:24.594Z,7.67
2024-04-16T01:27:51.358Z,7.68
2024-04-16T01:30:17.947Z,7.68
2024-04-16T01:32:44.552Z,7.67
2024-04-16T01:35:12.307Z,7.67
2024-04-16T01:37:38.970Z,7.67
2024-04-16T01:40:06.124Z,7.67
2024-04-16T01:42:32.779Z,7.67
2024-04-16T01:45:00.654Z,7.68
2024-04-16T01:47:27.773Z,7.70
2024-04-16T01:49:54.513Z,7.72
2024-04-16T01:52:21.264Z,7.73
2024-04-16T01:54:47.888Z,7.76
2024-04-16T01:57:14.469Z,7.78
2024-04-16T01:59:41.135Z,7.80
2024-04-16T02:02:09.163Z,7.83
2024-04-16T02:04:35.947Z,7.86
2024-04-16T02:07:02.720Z,7.90
2024-04-16T02:09:29.481Z,7.94
2024-04-16T02:11:56.070Z,7.97
2024-04-16T02:14:22.695Z,8.00
2024-04-16T02:16:49.395Z,8.03
2024-04-16T02:19:15.963Z,8.05
2024-04-16T02:21:42.577Z,8.06
2024-04-16T02:24:09.145Z,8.08
2024-04-16T02:26:35.673Z,8.08
2024-04-16T02:29:02.206Z,8.07
2024-04-16T02:31:31.765Z,8.08
2024-04-16T02:33:58.842Z,8.08
2024-04-16T02:36:25.490Z,8.10
2024-04-16T02:38:52.279Z,8.10
2024-04-16T02:41:18.818Z,8.10
2024-04-16T02:43:45.364Z,8.10
2024-04-16T02:46:12.484Z,8.11
2024-04-16T02:48:39.038Z,8.10
2024-04-16T02:51:05.628Z,8.11
2024-04-16T02:53:32.209Z,8.10
2024-04-16T02:55:58.784Z,8.10
2024-04-16T02:58:25.548Z,8.10
2024-04-16T03:00:52.142Z,8.12
2024-04-16T03:03:18.710Z,8.11
2024-04-16T03:05:45.409Z,8.13
2024-04-16T03:08:11.989Z,8.12
2024-04-16T03:10:41.717Z,8.14
2024-04-16T03:13:08.329Z,8.12
2024-04-16T03:15:34.872Z,8.11
2024-04-16T03:18:01.514Z,8.09
2024-04-16T03:20:28.115Z,8.08
2024-04-16T03:22:54.691Z,8.06
2024-04-16T03:25:21.290Z,8.05
2024-04-16T03:27:48.496Z,8.05
2024-04-16T03:30:15.068Z,8.05
2024-04-16T03:32:41.946Z,8.05
2024-04-16T03:35:09.771Z,8.06
2024-04-16T03:37:37.277Z,8.07
2024-04-16T03:40:05.734Z,8.08
2024-04-16T03:42:32.396Z,8.09
2024-04-16T03:44:58.926Z,8.10
2024-04-16T03:47:25.595Z,8.09
2024-04-16T03:49:52.204Z,8.10
2024-04-16T03:52:18.780Z,8.10
2024-04-16T03:54:45.364Z,8.09
2024-04-16T03:57:12.057Z,8.09
2024-04-16T03:59:39.723Z,8.08
2024-04-16T04:02:07.400Z,8.08
2024-04-16T04:04:34.803Z,8.06
2024-04-16T04:07:01.734Z,8.07
2024-04-16T04:09:28.273Z,8.07
2024-04-16T04:11:54.800Z,8.07
2024-04-16T04:14:21.446Z,8.07
2024-04-16T04:16:48.141Z,8.08
2024-04-16T04:19:14.759Z,8.09
2024-04-16T04:21:41.414Z,8.09
2024-04-16T04:24:15.754Z,8.11
2024-04-16T04:26:49.742Z,8.12
2024-04-16T04:29:16.344Z,8.13
2024-04-16T04:31:42.976Z,8.14
2024-04-16T04:34:09.641Z,8.15
2024-04-16T04:36:37.128Z,8.16
2024-04-16T04:39:03.794Z,8.17
2024-04-16T04:41:30.327Z,8.19
2024-04-16T04:43:56.870Z,8.16
2024-04-16T04:46:23.697Z,8.16
2024-04-16T04:48:50.407Z,8.17
2024-04-16T04:51:16.962Z,8.16
2024-04-16T04:53:43.532Z,8.17
2024-04-16T04:56:10.066Z,8.16
2024-04-16T04:58:37.287Z,8.15
2024-04-16T05:01:04.152Z,8.16
2024-04-16T05:03:30.722Z,8.16
2024-04-16T05:05:57.268Z,8.16
2024-04-16T05:08:25.987Z,8.16
2024-04-16T05:10:53.052Z,8.16
2024-04-16T05:13:19.747Z,8.17
2024-04-16T05:15:47.647Z,8.19
2024-04-16T05:18:14.336Z,8.18
2024-04-16T05:20:40.901Z,8.19
2024-04-16T05:23:07.454Z,8.20
2024-04-16T05:25:34.133Z,8.20
2024-04-16T05:28:00.714Z,8.20
2024-04-16T05:30:27.273Z,8.20
2024-04-16T05:32:56.763Z,8.23
2024-04-16T05:35:23.348Z,8.24
2024-04-16T05:37:49.868Z,8.26
2024-04-16T05:40:17.904Z,8.28
2024-04-16T05:42:45.657Z,8.30
2024-04-16T05:45:12.222Z,8.32
2024-04-16T05:47:38.813Z,8.34
2024-04-16T05:50:06.014Z,8.40
2024-04-16T05:52:32.603Z,8.44
2024-04-16T05:54:59.221Z,8.51
2024-04-16T05:57:26.567Z,8.57
2024-04-16T05:59:53.487Z,8.65
2024-04-16T06:02:20.122Z,8.74
2024-04-16T06:04:46.765Z,8.82
2024-04-16T06:07:13.822Z,8.89
2024-04-16T06:09:40.375Z,8.95
2024-04-16T06:12:07.655Z,8.97
2024-04-16T06:14:34.490Z,9.00
2024-04-16T06:17:01.074Z,9.02
2024-04-16T06:19:27.668Z,9.01
2024-04-16T06:21:54.203Z,9.01
2024-04-16T06:24:21.024Z,9.02
2024-04-16T06:26:47.545Z,9.02
2024-04-16T06:29:14.111Z,9.05
2024-04-16T06:31:40.721Z,9.06
2024-04-16T06:34:07.338Z,9.08
2024-04-16T06:36:33.909Z,9.11
2024-04-16T06:39:00.470Z,9.13
2024-04-16T06:41:27.106Z,9.16
2024-04-16T06:43:53.693Z,9.20
2024-04-16T06:46:21.437Z,9.22
2024-04-16T06:49:00.060Z,9.26
2024-04-16T06:51:35.136Z,9.30
2024-04-16T06:54:01.676Z,9.32
2024-04-16T06:56:28.280Z,9.35
2024-04-16T06:58:54.831Z,9.35
2024-04-16T07:01:27.022Z,9.36
2024-04-16T07:03:54.779Z,9.35
2024-04-16T07:06:21.413Z,9.33
2024-04-16T07:08:47.997Z,9.31
2024-04-16T07:11:14.578Z,9.30
2024-04-16T07:13:45.357Z,9.27
2024-04-16T07:16:12.917Z,9.25
2024-04-16T07:18:39.494Z,9.23
2024-04-16T07:21:06.066Z,9.20
2024-04-16T07:23:32.582Z,9.16
2024-04-16T07:26:00.805Z,9.14
2024-04-16T07:28:28.550Z,9.11
2024-04-16T07:31:02.029Z,9.07
2024-04-16T07:33:37.175Z,9.04
2024-04-16T07:36:10.320Z,9.02
2024-04-16T07:38:37.831Z,8.98
2024-04-16T07:41:04.640Z,8.96
2024-04-16T07:43:31.469Z,8.93
2024-04-16T07:45:58.146Z,8.90
2024-04-16T07:48:24.784Z,8.87
2024-04-16T07:50:51.473Z,8.83
2024-04-16T07:53:18.256Z,8.78
2024-04-16T07:55:45.256Z,8.72
2024-04-16T07:58:11.877Z,8.68
2024-04-16T08:00:40.718Z,8.64
2024-04-16T08:03:09.084Z,8.60
2024-04-16T08:05:37.700Z,8.59
2024-04-16T08:08:05.847Z,8.58
2024-04-16T08:10:33.791Z,8.55
2024-04-16T08:13:00.512Z,8.54
2024-04-16T08:15:27.097Z,8.51
2024-04-16T08:17:56.860Z,8.50
2024-04-16T08:20:25.163Z,8.48
2024-04-16T08:22:52.770Z,8.46
2024-04-16T08:25:19.364Z,8.44
2024-04-16T08:27:45.986Z,8.43
2024-04-16T08:30:12.678Z,8.42
2024-04-16T08:32:39.702Z,8.40
2024-04-16T08:35:06.517Z,8.40
2024-04-16T08:37:33.352Z,8.39
2024-04-16T08:40:00.151Z,8.39
2024-04-16T08:42:26.868Z,8.43
2024-04-16T08:44:55.315Z,8.47
2024-04-16T08:47:24.238Z,8.52
2024-04-16T08:49:52.383Z,8.57
2024-04-16T08:52:20.378Z,8.65
2024-04-16T08:54:48.638Z,8.71
2024-04-16T08:57:15.381Z,8.79
2024-04-16T08:59:41.927Z,8.86
2024-04-16T09:02:09.320Z,8.93
2024-04-16T09:04:38.070Z,9.03
2024-04-16T09:07:09.123Z,9.12
2024-04-16T09:09:36.568Z,9.19
2024-04-16T09:12:04.490Z,9.27
2024-04-16T09:14:33.125Z,9.34
2024-04-16T09:17:02.800Z,9.42
2024-04-16T09:19:29.466Z,9.46
2024-04-16T09:22:00.618Z,9.54
2024-04-16T09:24:27.202Z,9.59
2024-04-16T09:26:53.779Z,9.67
2024-04-16T09:29:27.719Z,9.76
2024-04-16T09:32:00.980Z,9.82
2024-04-16T09:34:27.799Z,9.87
2024-04-16T09:36:54.850Z,9.91
2024-04-16T09:39:23.201Z,9.95
2024-04-16T09:41:50.350Z,9.97
2024-04-16T09:44:17.631Z,10.02
2024-04-16T09:46:45.800Z,10.07
2024-04-16T09:49:16.075Z,10.14
2024-04-16T09:51:43.199Z,10.20
2024-04-16T09:54:12.925Z,10.30
2024-04-16T09:56:40.256Z,10.41
2024-04-16T09:59:08.424Z,10.55
2024-04-16T10:01:35.301Z,10.71
2024-04-16T10:04:02.495Z,10.88
2024-04-16T10:06:29.164Z,11.05
2024-04-16T10:08:56.127Z,11.22
2024-04-16T10:11:31.285Z,11.38
2024-04-16T10:13:59.333Z,11.55
2024-04-16T10:16:27.304Z,11.70
2024-04-16T10:18:57.662Z,11.83
2024-04-16T10:21:28.183Z,11.99
2024-04-16T10:24:08.587Z,12.12
2024-04-16T10:26:42.750Z,12.23
2024-04-16T10:29:26.172Z,12.29
2024-04-16T10:31:56.159Z,12.34
2024-04-16T10:34:27.832Z,12.36
2024-04-16T10:36:57.072Z,12.38
2024-04-16T10:39:33.887Z,12.42
2024-04-16T10:42:05.388Z,12.47
2024-04-16T10:44:34.460Z,12.50
2024-04-16T10:47:01.889Z,12.50
2024-04-16T10:49:29.641Z,12.46
2024-04-16T10:51:56.747Z,12.42
2024-04-16T10:54:23.375Z,12.32
2024-04-16T10:56:51.976Z,12.18
2024-04-16T10:59:19.691Z,12.03
2024-04-16T11:01:48.033Z,11.89
2024-04-16T11:04:16.332Z,11.76
2024-04-16T11:06:43.343Z,11.66
2024-04-16T11:09:11.935Z,11.56
2024-04-16T11:11:41.196Z,11.48
2024-04-16T11:14:08.497Z,11.40
2024-04-16T11:16:35.706Z,11.36
2024-04-16T11:19:03.882Z,11.37
2024-04-16T11:21:33.167Z,11.38
2024-04-16T11:24:00.260Z,11.42
2024-04-16T11:26:28.022Z,11.47
2024-04-16T11:28:54.651Z,11.50
2024-04-16T11:31:21.615Z,11.49
2024-04-16T11:33:49.007Z,11.46
2024-04-16T11:36:17.952Z,11.42
2024-04-16T11:38:44.673Z,11.39
2024-04-16T11:41:13.670Z,11.37
2024-04-16T11:43:43.334Z,11.34
2024-04-16T11:46:13.299Z,11.31
2024-04-16T11:48:40.303Z,11.28
2024-04-16T11:51:11.231Z,11.27
2024-04-16T11:53:38.876Z,11.26
2024-04-16T11:56:12.496Z,11.26
2024-04-16T11:58:40.726Z,11.28
2024-04-16T12:01:07.746Z,11.31
2024-04-16T12:03:34.804Z,11.30
2024-04-16T12:06:01.687Z,11.34
2024-04-16T12:08:28.247Z,11.38
2024-04-16T12:10:55.059Z,11.49
2024-04-16T12:13:21.620Z,11.57
2024-04-16T12:15:48.184Z,11.67
2024-04-16T12:18:14.827Z,11.76
2024-04-16T12:20:41.439Z,11.88
2024-04-16T12:23:07.993Z,11.98
2024-04-16T12:25:34.561Z,12.06
2024-04-16T12:28:01.878Z,12.17
2024-04-16T12:30:29.668Z,12.25
2024-04-16T12:33:01.920Z,12.34
2024-04-16T12:35:37.555Z,12.40
2024-04-16T12:38:05.667Z,12.43
2024-04-16T12:40:32.353Z,12.44
2024-04-16T12:43:00.114Z,12.46
2024-04-16T12:45:27.209Z,12.51
2024-04-16T12:47:53.879Z,12.54
2024-04-16T12:50:20.466Z,12.60
2024-04-16T12:52:47.090Z,12.65
2024-04-16T12:55:14.263Z,12.69
2024-04-16T12:57:40.934Z,12.74
2024-04-16T13:00:08.661Z,12.81
2024-04-16T13:02:36.017Z,12.89
2024-04-16T13:05:02.708Z,12.96
2024-04-16T13:07:29.353Z,13.05
2024-04-16T13:09:56.096Z,13.15
2024-04-16T13:12:22.627Z,13.24
2024-04-16T13:14:49.309Z,13.32
2024-04-16T13:17:15.880Z,13.37
2024-04-16T13:19:42.619Z,13.39
2024-04-16T13:22:09.379Z,13.39
2024-04-16T13:24:35.942Z,13.36
2024-04-16T13:27:02.503Z,13.30
2024-04-16T13:29:29.013Z,13.25
2024-04-16T13:31:55.631Z,13.23
2024-04-16T13:34:22.444Z,13.22
2024-04-16T13:36:49.016Z,13.22
2024-04-16T13:39:15.537Z,13.24
2024-04-16T13:41:42.065Z,13.21
2024-04-16T13:44:08.594Z,13.23
2024-04-16T13:46:35.246Z,13.25
2024-04-16T13:49:01.778Z,13.27
2024-04-16T13:51:28.337Z,13.31
2024-04-16T13:53:54.880Z,13.39
2024-04-16T13:56:21.541Z,13.49
2024-04-16T13:58:48.075Z,13.63
2024-04-16T14:01:14.639Z,13.74
2024-04-16T14:03:41.315Z,13.84
2024-04-16T14:06:07.947Z,13.92
2024-04-16T14:08:36.431Z,14.00
2024-04-16T14:11:03.139Z,14.05
2024-04-16T14:13:29.789Z,14.11
2024-04-16T14:15:56.426Z,14.13
2024-04-16T14:18:23.069Z,14.12
2024-04-16T14:20:49.674Z,14.10
2024-04-16T14:23:16.215Z,14.00
2024-04-16T14:25:43.009Z,13.92
2024-04-16T14:28:09.698Z,13.82
2024-04-16T14:30:36.308Z,13.73
2024-04-16T14:33:03.016Z,13.64
2024-04-16T14:35:30.086Z,13.57
2024-04-16T14:37:56.611Z,13.54
2024-04-16T14:40:23.160Z,13.52
2024-04-16T14:42:49.749Z,13.52
2024-04-16T14:45:16.368Z,13.52
2024-04-16T14:47:43.693Z,13.53
2024-04-16T14:50:10.411Z,13.53
2024-04-16T14:52:36.966Z,13.55
2024-04-16T14:55:03.802Z,13.57
2024-04-16T14:57:30.745Z,13.59
2024-04-16T14:59:57.334Z,13.63
2024-04-16T15:02:23.952Z,13.64
2024-04-16T15:04:50.664Z,13.67
2024-04-16T15:07:17.327Z,13.68
2024-04-16T15:09:44.218Z,13.71
2024-04-16T15:12:15.638Z,13.73
2024-04-16T15:14:42.225Z,13.73
2024-04-16T15:17:08.897Z,13.72
2024-04-16T15:19:35.659Z,13.74
2024-04-16T15:22:02.333Z,13.75
2024-04-16T15:24:28.892Z,13.75
2024-04-16T15:26:55.447Z,13.75
2024-04-16T15:29:22.026Z,13.74
2024-04-16T15:31:48.620Z,13.73
2024-04-16T15:34:15.218Z,13.73
2024-04-16T15:36:41.775Z,13.73
2024-04-16T15:39:08.590Z,13.74
2024-04-16T15:41:35.189Z,13.75
2024-04-16T15:44:02.264Z,13.77
2024-04-16T15:46:28.815Z,13.78
2024-04-16T15:48:56.734Z,13.78
2024-04-16T15:51:26.146Z,13.79
2024-04-16T15:53:52.942Z,13.78
2024-04-16T15:56:19.536Z,13.78
2024-04-16T15:58:46.637Z,13.79
2024-04-16T16:01:13.800Z,13.79
2024-04-16T16:03:40.614Z,13.79
2024-04-16T16:06:07.432Z,13.75
2024-04-16T16:08:34.036Z,13.73
2024-04-16T16:11:00.715Z,13.69
2024-04-16T16:13:27.378Z,13.67
2024-04-16T16:15:53.952Z,13.65
2024-04-16T16:18:20.673Z,13.65
2024-04-16T16:20:51.446Z,13.66
2024-04-16T16:23:18.292Z,13.67
2024-04-16T16:25:45.549Z,13.66
2024-04-16T16:28:12.338Z,13.61
2024-04-16T16:30:38.883Z,13.58
2024-04-16T16:33:05.715Z,13.52
2024-04-16T16:35:32.416Z,13.47
2024-04-16T16:37:59.666Z,13.41
2024-04-16T16:40:26.480Z,13.38
2024-04-16T16:42:54.406Z,13.34
2024-04-16T16:45:21.025Z,13.31
2024-04-16T16:47:47.691Z,13.29
2024-04-16T16:50:14.439Z,13.23
2024-04-16T16:52:41.017Z,13.20
2024-04-16T16:55:10.805Z,13.13
2024-04-16T16:57:37.358Z,13.04
2024-04-16T17:00:04.827Z,12.85
2024-04-16T17:02:31.408Z,12.61
2024-04-16T17:04:57.986Z,12.35
2024-04-16T17:07:24.606Z,12.10
2024-04-16T17:09:51.154Z,11.89
2024-04-16T17:12:19.414Z,11.70
2024-04-16T17:14:45.982Z,11.55
2024-04-16T17:17:13.102Z,11.39
2024-04-16T17:19:39.732Z,11.29
2024-04-16T17:22:06.306Z,11.18
2024-04-16T17:24:32.982Z,11.09
2024-04-16T17:27:08.829Z,11.02
2024-04-16T17:29:35.285Z,11.01
2024-04-16T17:32:01.829Z,10.98
2024-04-16T17:34:28.432Z,10.91
2024-04-16T17:36:54.974Z,10.85
2024-04-16T17:39:21.571Z,10.80
2024-04-16T17:41:48.118Z,10.75
2024-04-16T17:44:14.654Z,10.71
2024-04-16T17:46:41.662Z,10.69
2024-04-16T17:49:08.438Z,10.67
2024-04-16T17:51:35.009Z,10.64
2024-04-16T17:54:01.657Z,10.62
2024-04-16T17:56:28.189Z,10.60
2024-04-16T17:58:54.762Z,10.57
2024-04-16T18:01:21.503Z,10.55
2024-04-16T18:06:14.758Z,10.48
2024-04-16T18:08:41.349Z,10.47
2024-04-16T18:11:11.547Z,10.45
2024-04-16T18:13:41.808Z,10.41
2024-04-16T18:16:08.407Z,10.38
2024-04-16T18:18:35.180Z,10.31
2024-04-16T18:21:03.167Z,10.26
2024-04-16T18:23:31.103Z,10.22
2024-04-16T18:25:57.880Z,10.17
2024-04-16T18:28:24.503Z,10.13
2024-04-16T18:30:51.075Z,10.09
2024-04-16T18:33:17.722Z,10.06
2024-04-16T18:35:44.789Z,10.03
2024-04-16T18:38:13.423Z,10.01
2024-04-16T18:40:40.164Z,10.01
2024-04-16T18:43:06.748Z,9.99
2024-04-16T18:45:33.728Z,9.97
2024-04-16T18:48:01.379Z,9.97
2024-04-16T18:50:28.030Z,9.97
2024-04-16T18:52:54.651Z,9.96
2024-04-16T18:55:21.308Z,9.95
2024-04-16T18:57:47.859Z,9.96
2024-04-16T19:00:14.439Z,9.96
2024-04-16T19:02:42.167Z,9.96
2024-04-16T19:05:08.754Z,9.90
2024-04-16T19:07:35.329Z,9.82
2024-04-16T19:10:02.574Z,9.67
2024-04-16T19:12:29.192Z,9.53
2024-04-16T19:14:56.875Z,9.38
2024-04-16T19:17:23.593Z,9.23
2024-04-16T19:19:50.251Z,9.10
2024-04-16T19:22:21.777Z,9.01
2024-04-16T19:24:49.417Z,8.95
2024-04-16T19:27:15.945Z,8.90
2024-04-16T19:29:43.559Z,8.88
2024-04-16T19:32:10.294Z,8.87
2024-04-16T19:34:36.937Z,8.88
2024-04-16T19:37:03.684Z,8.88
2024-04-16T19:39:30.243Z,8.88
2024-04-16T19:41:56.933Z,8.88
2024-04-16T19:44:23.470Z,8.86
2024-04-16T19:46:50.202Z,8.87
2024-04-16T19:49:16.857Z,8.86
2024-04-16T19:51:43.447Z,8.86
2024-04-16T19:54:09.993Z,8.84
2024-04-16T19:56:36.543Z,8.83
2024-04-16T19:59:03.302Z,8.80
2024-04-16T20:01:29.832Z,8.78
2024-04-16T20:03:56.599Z,8.74
2024-04-16T20:06:23.446Z,8.71
2024-04-16T20:08:52.349Z,8.68
2024-04-16T20:11:21.724Z,8.64
2024-04-16T20:13:52.094Z,8.61
2024-04-16T20:16:18.666Z,8.59
2024-04-16T20:18:45.367Z,8.56
2024-04-16T20:21:12.068Z,8.54
2024-04-16T20:23:38.675Z,8.52
2024-04-16T20:26:09.157Z,8.50
2024-04-16T20:28:39.407Z,8.47
2024-04-16T20:31:06.209Z,8.45
2024-04-16T20:33:34.323Z,8.43
2024-04-16T20:36:04.115Z,8.41
2024-04-16T20:38:30.892Z,8.40
2024-04-16T20:40:57.638Z,8.36
2024-04-16T20:43:24.855Z,8.34
2024-04-16T20:45:52.641Z,8.34
2024-04-16T20:48:20.188Z,8.33
2024-04-16T20:50:51.476Z,8.34
2024-04-16T20:53:25.593Z,8.34
2024-04-16T20:55:52.219Z,8.34
2024-04-16T20:58:18.891Z,8.33
2024-04-16T21:00:45.500Z,8.34
2024-04-16T21:03:12.155Z,8.33
2024-04-16T21:05:39.620Z,8.34
2024-04-16T21:08:06.559Z,8.34
2024-04-16T21:10:33.091Z,8.34
2024-04-16T21:12:59.711Z,8.34
2024-04-16T21:15:26.263Z,8.36
2024-04-16T21:17:52.876Z,8.38
2024-04-16T21:20:20.533Z,8.38
2024-04-16T21:22:47.878Z,8.39
2024-04-16T21:25:14.517Z,8.40
2024-04-16T21:27:41.181Z,8.42
2024-04-16T21:30:07.875Z,8.43
2024-04-16T21:32:34.446Z,8.45
2024-04-16T21:35:01.150Z,8.46
2024-04-16T21:37:28.368Z,8.46
2024-04-16T21:39:55.215Z,8.44
2024-04-16T21:42:21.803Z,8.44
2024-04-16T21:44:48.389Z,8.43
2024-04-16T21:47:19.974Z,8.41
2024-04-16T21:49:49.671Z,8.40
2024-04-16T21:52:17.458Z,8.38
2024-04-16T21:54:44.093Z,8.35
2024-04-16T21:57:10.631Z,8.33
2024-04-16T21:59:37.318Z,8.28
2024-04-16T22:02:04.166Z,8.25
2024-04-16T22:04:30.802Z,8.23
2024-04-16T22:06:57.420Z,8.19
2024-04-16T22:09:23.973Z,8.15
2024-04-16T22:11:50.546Z,8.13
2024-04-16T22:14:17.107Z,8.08
2024-04-16T22:16:43.896Z,8.06
2024-04-16T22:19:10.468Z,8.03
2024-04-16T22:21:37.052Z,8.00
2024-04-16T22:24:03.787Z,7.96
2024-04-16T22:26:30.620Z,7.95
2024-04-16T22:28:57.195Z,7.93
2024-04-16T22:31:23.793Z,7.89
2024-04-16T22:33:50.383Z,7.86
2024-04-16T22:36:19.560Z,7.84
2024-04-16T22:38:47.905Z,7.82
2024-04-16T22:41:15.179Z,7.79
2024-04-16T22:43:41.724Z,7.76
2024-04-16T22:46:11.886Z,7.75
2024-04-16T22:48:38.530Z,7.70
2024-04-16T22:51:06.126Z,7.68
2024-04-16T22:53:32.870Z,7.67
2024-04-16T22:55:59.630Z,7.63
2024-04-16T22:58:26.268Z,7.61
2024-04-16T23:00:52.806Z,7.60
2024-04-16T23:03:19.625Z,7.58
2024-04-16T23:05:46.259Z,7.56
2024-04-16T23:08:12.793Z,7.55
2024-04-16T23:10:40.375Z,7.51
2024-04-16T23:13:07.696Z,7.52
2024-04-16T23:15:34.508Z,7.50
2024-04-16T23:18:04.198Z,7.47
2024-04-16T23:20:30.971Z,7.47
2024-04-16T23:22:57.663Z,7.43
2024-04-16T23:25:24.666Z,7.41
2024-04-16T23:27:51.253Z,7.38
2024-04-16T23:30:17.915Z,7.35
2024-04-16T23:32:44.580Z,7.30
2024-04-16T23:35:11.325Z,7.27
2024-04-16T23:37:37.946Z,7.23
2024-04-16T23:40:04.962Z,7.21
2024-04-16T23:42:31.471Z,7.18
2024-04-16T23:44:58.031Z,7.13
2024-04-16T23:47:24.562Z,7.11
2024-04-16T23:49:51.212Z,7.08
2024-04-16T23:52:17.848Z,7.03
2024-04-16T23:54:44.382Z,6.99
2024-04-16T23:57:12.088Z,6.97
2024-04-16T23:59:38.690Z,6.92
